Time;durP1;ratioP1;P1;durP2;ratioP2;P2;SDS_P1;SDS_P2;PMS_P1;PMS_P2;Temp;Humidity;BMP_temperature;BMP_pressure;BME280_temperature;BME280_humidity;BME280_pressure;Samples;Min_cycle;Max_cycle;Signal;HPM_P1;HPM_P2
2021/12/28 00:01:02;;;;;;;16.77;7.53;;;5.40;91.50;;;;;;1924317;74;21096;-44
2021/12/28 00:03:32;;;;;;;14.65;7.95;;;5.40;91.30;;;;;;1924891;74;21038;-44
2021/12/28 00:06:02;;;;;;;17.87;8.68;;;5.40;91.30;;;;;;1924711;74;21015;-44
2021/12/28 00:08:33;;;;;;;12.93;7.47;;;5.40;91.40;;;;;;1924621;74;21014;-44
2021/12/28 00:11:03;;;;;;;13.58;7.40;;;5.50;91.40;;;;;;1924742;74;21084;-44
2021/12/28 00:13:34;;;;;;;13.55;7.00;;;5.40;91.20;;;;;;1924681;74;21058;-44
2021/12/28 00:18:38;;;;;;;13.10;7.47;;;5.40;91.30;;;;;;1924758;74;21015;-44
2021/12/28 00:21:08;;;;;;;11.85;6.60;;;5.40;91.30;;;;;;1924651;74;21088;-44
2021/12/28 00:23:41;;;;;;;11.55;6.83;;;5.30;91.40;;;;;;1924739;74;21023;-44
2021/12/28 00:26:13;;;;;;;13.10;7.67;;;5.30;91.20;;;;;;1924707;74;21035;-44
2021/12/28 00:28:45;;;;;;;13.85;6.60;;;5.30;91.20;;;;;;1924792;74;21046;-43
2021/12/28 00:31:15;;;;;;;13.65;7.40;;;5.20;91.40;;;;;;1924744;74;21087;-44
2021/12/28 00:33:45;;;;;;;11.70;7.37;;;5.20;91.50;;;;;;1924660;74;21058;-44
2021/12/28 00:36:15;;;;;;;13.00;6.85;;;5.30;91.40;;;;;;1924638;74;21023;-44
2021/12/28 00:38:45;;;;;;;13.60;7.50;;;5.20;91.30;;;;;;1924778;74;21088;-43
2021/12/28 00:41:14;;;;;;;17.25;8.25;;;5.20;91.20;;;;;;1924584;74;21072;-43
2021/12/28 00:43:44;;;;;;;16.48;7.87;;;5.10;91.20;;;;;;1924637;74;21084;-44
2021/12/28 00:46:13;;;;;;;14.18;8.40;;;5.10;91.20;;;;;;1924562;74;21054;-44
2021/12/28 00:48:42;;;;;;;14.03;8.13;;;5.10;91.40;;;;;;1924543;74;21081;-44
2021/12/28 00:51:12;;;;;;;15.38;8.53;;;5.00;91.40;;;;;;1924715;74;21068;-43
2021/12/28 00:53:41;;;;;;;14.73;7.65;;;5.00;91.20;;;;;;1924510;74;21030;-44
2021/12/28 00:56:11;;;;;;;15.80;8.20;;;5.00;91.50;;;;;;1924587;74;21027;-44
2021/12/28 00:58:40;;;;;;;15.90;8.50;;;5.00;91.50;;;;;;1924647;74;21092;-43
2021/12/28 01:01:09;;;;;;;13.45;7.50;;;5.00;91.60;;;;;;1924496;74;21101;-44
2021/12/28 01:03:38;;;;;;;17.45;9.38;;;5.00;91.50;;;;;;1924679;74;21022;-44
2021/12/28 01:06:08;;;;;;;20.23;10.25;;;5.00;91.50;;;;;;1924701;74;21465;-43
2021/12/28 01:08:38;;;;;;;18.95;9.33;;;5.00;91.50;;;;;;1924696;74;21011;-44
2021/12/28 01:11:07;;;;;;;15.58;8.00;;;5.00;91.50;;;;;;1924587;74;20994;-43
2021/12/28 01:13:37;;;;;;;18.27;8.73;;;5.00;91.50;;;;;;1924555;74;21015;-44
2021/12/28 01:16:06;;;;;;;19.55;9.45;;;5.00;91.50;;;;;;1924554;74;21022;-44
2021/12/28 01:18:35;;;;;;;20.97;9.15;;;5.00;91.50;;;;;;1924555;74;21081;-43
2021/12/28 01:21:05;;;;;;;20.12;8.33;;;5.00;91.60;;;;;;1924522;74;21026;-44
2021/12/28 01:23:34;;;;;;;21.73;9.90;;;5.10;91.70;;;;;;1924656;74;21022;-44
2021/12/28 01:26:04;;;;;;;20.55;10.13;;;5.10;91.70;;;;;;1924665;74;21066;-43
2021/12/28 01:28:34;;;;;;;20.40;9.50;;;5.20;91.80;;;;;;1924529;74;21030;-44
2021/12/28 01:31:04;;;;;;;17.70;8.65;;;5.20;91.60;;;;;;1924595;74;21139;-45
2021/12/28 01:33:33;;;;;;;19.73;10.28;;;5.30;91.60;;;;;;1924605;74;21128;-43
2021/12/28 01:36:02;;;;;;;20.85;10.48;;;5.30;91.50;;;;;;1924824;74;21538;-45
2021/12/28 01:38:32;;;;;;;18.80;10.78;;;5.30;91.50;;;;;;1924521;74;21019;-44
2021/12/28 01:41:01;;;;;;;22.13;10.58;;;5.30;91.40;;;;;;1924590;74;21108;-44
2021/12/28 01:43:30;;;;;;;21.50;10.25;;;5.20;91.40;;;;;;1924633;74;21018;-43
2021/12/28 01:46:01;;;;;;;24.27;11.95;;;5.20;91.40;;;;;;1924577;74;21088;-43
2021/12/28 01:48:36;;;;;;;23.40;10.38;;;5.10;91.40;;;;;;1924708;74;21031;-44
2021/12/28 01:51:06;;;;;;;;;;;5.10;91.50;;;;;;1927464;74;20987;-44
2021/12/28 01:53:35;;;;;;;25.23;12.68;;;5.00;91.50;;;;;;1924622;74;20245;-44
2021/12/28 01:56:07;;;;;;;26.52;10.72;;;5.00;91.60;;;;;;1924558;74;21022;-43
2021/12/28 01:58:36;;;;;;;24.70;11.60;;;5.10;91.60;;;;;;1924539;74;21015;-44
2021/12/28 02:01:06;;;;;;;22.40;9.55;;;5.20;91.60;;;;;;1924453;74;20995;-43
2021/12/28 02:03:38;;;;;;;26.15;12.33;;;5.20;91.50;;;;;;1924528;74;21084;-44
2021/12/28 02:06:09;;;;;;;25.12;10.95;;;5.20;91.50;;;;;;1924608;74;21023;-44
2021/12/28 02:08:40;;;;;;;21.70;11.15;;;5.10;91.50;;;;;;1924668;74;21019;-44
2021/12/28 02:11:11;;;;;;;24.07;11.80;;;5.10;91.60;;;;;;1924824;74;21026;-44
2021/12/28 02:13:41;;;;;;;28.50;12.78;;;5.20;91.60;;;;;;1924782;74;21015;-43
2021/12/28 02:16:11;;;;;;;28.57;14.40;;;5.20;91.40;;;;;;1924625;74;21034;-44
2021/12/28 02:18:40;;;;;;;32.33;13.18;;;5.10;91.30;;;;;;1924650;74;21022;-43
2021/12/28 02:21:10;;;;;;;27.65;12.65;;;5.10;91.40;;;;;;1924691;74;21021;-45
2021/12/28 02:23:39;;;;;;;28.95;13.80;;;5.00;91.40;;;;;;1924798;74;21019;-44
2021/12/28 02:26:09;;;;;;;25.52;12.80;;;5.00;91.60;;;;;;1924657;74;21096;-44
2021/12/28 02:28:39;;;;;;;28.30;12.80;;;5.00;91.60;;;;;;1924623;74;21080;-44
2021/12/28 02:31:08;;;;;;;33.70;12.82;;;4.90;91.40;;;;;;1924790;74;21011;-43
2021/12/28 02:33:39;;;;;;;31.30;14.63;;;4.90;91.60;;;;;;1924745;74;21461;-43
2021/12/28 02:36:09;;;;;;;28.98;12.75;;;4.90;91.70;;;;;;1907281;74;21019;-44
2021/12/28 02:38:38;;;;;;;29.37;12.35;;;4.90;91.80;;;;;;1905345;75;21094;-44
2021/12/28 02:41:09;;;;;;;30.37;14.70;;;5.00;91.80;;;;;;1905231;75;21073;-44
2021/12/28 02:43:39;;;;;;;34.75;14.53;;;5.00;91.80;;;;;;1905350;75;21020;-44
2021/12/28 02:46:09;;;;;;;30.15;14.58;;;5.00;91.80;;;;;;1905392;74;21043;-44
2021/12/28 02:48:41;;;;;;;31.70;13.83;;;5.00;91.60;;;;;;1905360;75;21089;-43
2021/12/28 02:51:15;;;;;;;25.52;13.00;;;5.00;91.70;;;;;;1905417;75;21031;-43
2021/12/28 02:53:46;;;;;;;21.50;11.65;;;4.90;91.60;;;;;;1905213;74;21551;-43
2021/12/28 02:56:16;;;;;;;30.32;13.90;;;4.90;91.40;;;;;;1905320;75;21019;-43
2021/12/28 02:58:48;;;;;;;28.67;12.47;;;4.80;91.50;;;;;;1905337;75;21011;-43
2021/12/28 03:01:25;;;;;;;30.15;13.58;;;4.80;91.60;;;;;;1905399;75;21019;-44
2021/12/28 03:03:58;;;;;;;25.15;12.50;;;4.80;91.70;;;;;;1905212;74;21070;-44
2021/12/28 03:06:28;;;;;;;26.02;12.53;;;4.80;91.60;;;;;;1905377;75;21039;-45
2021/12/28 03:08:59;;;;;;;29.32;12.13;;;4.80;91.70;;;;;;1905253;75;21020;-44
2021/12/28 03:11:30;;;;;;;25.00;12.18;;;4.80;91.70;;;;;;1905370;75;21506;-44
2021/12/28 03:14:01;;;;;;;23.70;11.25;;;4.70;91.70;;;;;;1905310;75;21101;-44
2021/12/28 03:16:32;;;;;;;27.60;12.05;;;4.70;91.70;;;;;;1905292;74;21095;-44
2021/12/28 03:19:02;;;;;;;23.45;10.70;;;4.70;91.70;;;;;;1905209;75;21085;-43
2021/12/28 03:21:35;;;;;;;25.02;11.28;;;4.70;91.70;;;;;;1905297;74;21085;-44
2021/12/28 03:24:03;;;;;;;22.20;10.15;;;4.70;91.70;;;;;;1905171;74;21473;-43
2021/12/28 03:26:32;;;;;;;23.73;9.70;;;4.70;91.90;;;;;;1905357;75;21028;-44
2021/12/28 03:29:01;;;;;;;24.75;11.68;;;4.70;91.80;;;;;;1905219;75;21027;-44
2021/12/28 03:31:31;;;;;;;24.63;12.30;;;4.70;91.90;;;;;;1905259;75;21102;-44
2021/12/28 03:34:00;;;;;;;29.00;14.07;;;4.80;91.90;;;;;;1905243;75;21003;-43
2021/12/28 03:36:30;;;;;;;32.58;16.02;;;4.80;91.90;;;;;;1920350;74;21046;-43
2021/12/28 03:39:01;;;;;;;31.48;15.30;;;4.80;91.90;;;;;;1924694;74;21022;-44
2021/12/28 03:41:31;;;;;;;35.90;14.43;;;4.80;91.80;;;;;;1924528;74;21003;-43
2021/12/28 03:44:01;;;;;;;38.80;16.15;;;4.80;91.70;;;;;;1924590;74;21042;-44
2021/12/28 03:46:31;;;;;;;34.15;13.32;;;4.80;91.70;;;;;;1924698;74;21011;-44
2021/12/28 03:49:00;;;;;;;30.35;14.35;;;4.80;91.80;;;;;;1924723;74;21499;-44
2021/12/28 03:51:30;;;;;;;39.90;18.00;;;4.80;91.90;;;;;;1924660;74;21011;-43
2021/12/28 03:53:59;;;;;;;36.10;16.93;;;4.90;92.00;;;;;;1924691;74;21100;-44
2021/12/28 03:56:29;;;;;;;36.20;16.23;;;4.90;91.80;;;;;;1924605;74;21072;-44
2021/12/28 03:58:58;;;;;;;36.15;15.93;;;4.90;91.70;;;;;;1924562;74;21139;-44
2021/12/28 04:01:28;;;;;;;51.18;17.65;;;4.90;91.70;;;;;;1924753;74;20999;-44
2021/12/28 04:03:57;;;;;;;37.60;16.48;;;4.90;91.70;;;;;;1924559;74;21019;-44
2021/12/28 04:06:28;;;;;;;27.98;14.75;;;5.00;91.80;;;;;;1924639;74;21003;-44
2021/12/28 04:08:58;;;;;;;39.25;17.90;;;5.00;91.80;;;;;;1924576;74;21072;-44
2021/12/28 04:11:28;;;;;;;40.58;17.70;;;5.00;91.70;;;;;;1924667;74;21078;-44
2021/12/28 04:14:00;;;;;;;38.65;18.30;;;5.00;91.70;;;;;;1924660;74;21089;-43
2021/12/28 04:16:31;;;;;;;42.38;20.97;;;5.10;91.80;;;;;;1923693;74;21059;-45
2021/12/28 04:19:03;;;;;;;37.58;15.78;;;5.10;91.80;;;;;;1924685;74;21088;-43
2021/12/28 04:21:35;;;;;;;40.38;17.92;;;5.20;91.90;;;;;;1924644;74;21445;-44
2021/12/28 04:24:05;;;;;;;36.68;16.87;;;5.20;91.80;;;;;;1924690;74;20991;-45
2021/12/28 04:26:34;;;;;;;36.98;16.32;;;5.20;91.80;;;;;;1924692;74;21092;-45
2021/12/28 04:29:04;;;;;;;36.60;17.35;;;5.30;91.70;;;;;;1924624;74;21022;-44
2021/12/28 04:31:34;;;;;;;35.68;14.80;;;5.20;91.70;;;;;;1924635;74;21196;-44
2021/12/28 04:34:03;;;;;;;38.53;15.85;;;5.20;91.60;;;;;;1924811;74;21027;-43
2021/12/28 04:36:33;;;;;;;37.98;16.12;;;5.10;91.70;;;;;;1924573;74;21100;-43
2021/12/28 04:39:04;;;;;;;38.40;16.90;;;5.20;91.80;;;;;;1924677;74;21015;-45
2021/12/28 04:41:34;;;;;;;46.60;21.73;;;5.20;91.90;;;;;;1924586;74;21080;-45
2021/12/28 04:44:04;;;;;;;41.75;16.67;;;5.20;91.80;;;;;;1924605;74;21080;-44
2021/12/28 04:46:34;;;;;;;44.23;23.75;;;5.20;91.80;;;;;;1924627;74;21015;-44
2021/12/28 04:49:04;;;;;;;32.28;15.10;;;5.20;91.80;;;;;;1924576;74;21031;-43
2021/12/28 04:51:33;;;;;;;42.83;18.35;;;5.20;91.90;;;;;;1924657;74;21084;-43
2021/12/28 04:54:06;;;;;;;47.78;25.02;;;5.30;91.90;;;;;;1924621;74;21042;-45
2021/12/28 04:56:34;;;;;;;41.85;21.87;;;5.30;91.50;;;;;;1924478;74;21527;-45
2021/12/28 04:59:03;;;;;;;39.80;18.70;;;5.20;91.60;;;;;;1924703;74;21038;-44
2021/12/28 05:01:33;;;;;;;37.95;17.00;;;5.10;91.60;;;;;;1924540;74;21003;-46
2021/12/28 05:04:02;;;;;;;33.25;18.42;;;5.10;91.80;;;;;;1924559;74;21026;-46
2021/12/28 05:06:34;;;;;;;23.38;11.90;;;5.10;91.60;;;;;;1924623;74;21034;-47
2021/12/28 05:09:08;;;;;;;32.35;16.82;;;5.00;91.70;;;;;;1924898;74;21469;-47
2021/12/28 05:11:39;;;;;;;35.38;18.12;;;5.10;91.90;;;;;;1924842;74;21026;-46
2021/12/28 05:14:09;;;;;;;36.93;17.62;;;5.10;92.00;;;;;;1924595;74;21030;-47
2021/12/28 05:16:38;;;;;;;31.02;15.80;;;5.20;91.90;;;;;;1924670;74;21026;-46
2021/12/28 05:19:08;;;;;;;77.30;39.98;;;5.20;92.00;;;;;;1924615;74;21092;-46
2021/12/28 05:21:39;;;;;;;55.58;30.48;;;5.20;91.90;;;;;;1924546;74;21074;-46
2021/12/28 05:24:08;;;;;;;53.25;30.70;;;5.20;92.10;;;;;;1924674;74;21022;-46
2021/12/28 05:26:37;;;;;;;47.20;26.90;;;5.20;91.80;;;;;;1924626;74;21076;-46
2021/12/28 05:29:06;;;;;;;37.10;20.80;;;5.30;91.90;;;;;;1924717;74;21026;-46
2021/12/28 05:31:36;;;;;;;27.37;15.63;;;5.30;91.80;;;;;;1924644;74;21077;-46
2021/12/28 05:34:07;;;;;;;8.93;6.42;;;5.30;91.90;;;;;;1924527;74;21152;-49
2021/12/28 05:36:36;;;;;;;9.30;5.78;;;5.40;92.00;;;;;;1918905;74;21051;-50
2021/12/28 05:39:06;;;;;;;11.15;5.40;;;5.60;92.00;;;;;;1905249;75;21129;-47
2021/12/28 05:41:35;;;;;;;6.42;4.78;;;5.80;91.80;;;;;;1905263;75;21090;-50
2021/12/28 05:44:05;;;;;;;9.45;6.55;;;6.10;91.40;;;;;;1905247;75;21089;-50
2021/12/28 05:46:34;;;;;;;5.85;4.55;;;6.30;91.50;;;;;;1905334;75;21028;-46
2021/12/28 05:49:04;;;;;;;6.87;4.47;;;6.50;91.10;;;;;;1905483;75;21019;-47
2021/12/28 05:51:33;;;;;;;7.62;4.53;;;6.70;90.30;;;;;;1905422;75;21023;-49
2021/12/28 05:54:02;;;;;;;7.50;4.37;;;6.90;90.10;;;;;;1905417;75;21039;-47
2021/12/28 05:56:32;;;;;;;5.87;4.03;;;7.00;89.60;;;;;;1905383;74;21011;-49
2021/12/28 05:59:01;;;;;;;6.42;3.87;;;7.20;88.90;;;;;;1905399;75;21019;-49
2021/12/28 06:01:31;;;;;;;5.47;3.67;;;7.30;89.00;;;;;;1905186;74;21020;-48
2021/12/28 06:04:00;;;;;;;6.75;4.53;;;7.40;89.00;;;;;;1905278;75;21019;-48
2021/12/28 06:06:29;;;;;;;4.97;4.30;;;7.50;88.40;;;;;;1905273;74;21000;-47
2021/12/28 06:08:58;;;;;;;5.15;3.50;;;7.70;87.70;;;;;;1905269;74;20996;-47
2021/12/28 06:11:28;;;;;;;4.28;3.58;;;7.70;87.10;;;;;;1905358;75;21036;-47
2021/12/28 06:13:57;;;;;;;5.25;3.83;;;7.80;87.30;;;;;;1905248;75;20995;-45
2021/12/28 06:16:27;;;;;;;4.70;3.90;;;7.90;87.20;;;;;;1905220;75;21035;-47
2021/12/28 06:18:56;;;;;;;5.62;4.00;;;8.00;86.00;;;;;;1905300;75;21059;-48
2021/12/28 06:21:26;;;;;;;7.95;4.08;;;8.10;85.90;;;;;;1905182;75;21128;-44
2021/12/28 06:23:55;;;;;;;3.92;3.17;;;8.10;86.50;;;;;;1905498;75;21011;-44
2021/12/28 06:26:25;;;;;;;5.22;4.12;;;8.20;84.10;;;;;;1905204;75;21071;-44
2021/12/28 06:28:54;;;;;;;6.15;5.00;;;8.30;85.50;;;;;;1905257;75;21019;-46
2021/12/28 06:31:23;;;;;;;6.00;4.05;;;8.40;85.20;;;;;;1905346;75;21004;-45
2021/12/28 06:33:52;;;;;;;6.22;3.70;;;8.50;85.10;;;;;;1905277;75;21089;-44
2021/12/28 06:36:22;;;;;;;5.95;3.62;;;8.60;84.90;;;;;;1905409;75;21077;-46
2021/12/28 06:38:52;;;;;;;5.28;3.83;;;8.60;83.80;;;;;;1923792;74;21098;-45
2021/12/28 06:41:22;;;;;;;7.25;4.10;;;8.70;82.80;;;;;;1924597;74;21014;-45
2021/12/28 06:43:51;;;;;;;5.55;4.20;;;8.80;82.60;;;;;;1924679;74;21089;-48
2021/12/28 06:46:20;;;;;;;5.72;3.70;;;8.90;83.60;;;;;;1924626;74;21022;-45
2021/12/28 06:48:50;;;;;;;6.17;3.40;;;9.00;83.50;;;;;;1924619;74;20998;-48
2021/12/28 06:51:19;;;;;;;6.28;3.92;;;9.00;82.20;;;;;;1924627;74;21027;-45
2021/12/28 06:53:48;;;;;;;5.35;3.33;;;9.00;82.60;;;;;;1924677;74;21088;-48
2021/12/28 06:56:17;;;;;;;5.83;3.83;;;9.10;82.90;;;;;;1924619;74;21018;-46
2021/12/28 06:58:46;;;;;;;6.28;3.50;;;9.10;82.10;;;;;;1924591;74;21113;-45
2021/12/28 07:01:17;;;;;;;5.20;3.92;;;9.20;82.20;;;;;;1924558;74;21050;-49
2021/12/28 07:03:46;;;;;;;4.58;3.33;;;9.10;81.70;;;;;;1924678;74;21121;-44
2021/12/28 07:06:16;;;;;;;5.55;4.33;;;9.20;82.10;;;;;;1924602;74;21018;-45
2021/12/28 07:08:45;;;;;;;4.15;3.65;;;9.20;81.60;;;;;;1924752;74;20999;-45
2021/12/28 07:11:14;;;;;;;9.08;3.45;;;9.30;80.50;;;;;;1924572;74;21072;-47
2021/12/28 07:13:44;;;;;;;6.65;4.47;;;9.30;81.60;;;;;;1924764;74;21503;-47
2021/12/28 07:16:13;;;;;;;5.90;4.05;;;9.30;80.80;;;;;;1924655;74;21081;-47
2021/12/28 07:18:43;;;;;;;7.55;4.90;;;9.30;80.60;;;;;;1924743;74;21084;-45
2021/12/28 07:21:12;;;;;;;8.75;4.47;;;9.40;80.40;;;;;;1924577;74;21015;-48
2021/12/28 07:23:41;;;;;;;9.40;4.87;;;9.40;79.60;;;;;;1924710;74;20998;-45
2021/12/28 07:26:10;;;;;;;5.85;4.37;;;9.40;80.40;;;;;;1924819;74;21092;-45
2021/12/28 07:28:40;;;;;;;6.87;4.53;;;9.50;80.40;;;;;;1924862;74;20999;-47
2021/12/28 07:31:09;;;;;;;4.85;3.62;;;9.50;81.10;;;;;;1924839;74;21542;-46
2021/12/28 07:33:38;;;;;;;6.10;4.05;;;9.60;79.90;;;;;;1924917;74;20998;-49
2021/12/28 07:36:08;;;;;;;6.05;4.60;;;9.50;79.30;;;;;;1924787;74;21018;-46
2021/12/28 07:38:37;;;;;;;5.53;4.50;;;9.60;78.90;;;;;;1913036;74;21103;-45
2021/12/28 07:41:06;;;;;;;5.00;4.22;;;9.60;79.90;;;;;;1905350;74;21039;-44
2021/12/28 07:43:36;;;;;;;5.50;3.55;;;9.70;80.30;;;;;;1905265;75;20995;-46
2021/12/28 07:46:06;;;;;;;6.92;4.20;;;9.70;80.30;;;;;;1905235;75;21019;-45
2021/12/28 07:48:35;;;;;;;7.62;5.72;;;9.70;80.40;;;;;;1905372;74;21032;-45
2021/12/28 07:51:05;;;;;;;9.38;6.53;;;9.70;80.50;;;;;;1905350;75;21085;-45
2021/12/28 07:53:34;;;;;;;6.42;4.15;;;9.70;80.10;;;;;;1905447;75;21085;-47
2021/12/28 07:56:04;;;;;;;6.47;4.65;;;9.70;79.90;;;;;;1905359;74;21087;-45
2021/12/28 07:58:34;;;;;;;5.05;3.83;;;9.80;80.40;;;;;;1905312;75;21024;-44
2021/12/28 08:01:03;;;;;;;6.83;4.75;;;9.70;80.60;;;;;;1905361;75;21078;-44
2021/12/28 08:03:32;;;;;;;7.00;4.58;;;9.80;79.60;;;;;;1905257;75;21097;-47
2021/12/28 08:06:02;;;;;;;5.12;3.90;;;9.80;79.30;;;;;;1905218;75;21073;-43
2021/12/28 09:52:24;;;;;;;16.50;7.37;;;10.90;74.80;;;;;;1958564;72;25168;-44
2021/12/28 09:54:53;;;;;;;6.33;4.25;;;10.90;76.60;;;;;;1918288;73;21100;-45
2021/12/28 09:57:23;;;;;;;8.28;3.90;;;11.00;76.90;;;;;;1881614;76;21006;-46
2021/12/28 09:59:52;;;;;;;5.25;4.28;;;11.00;76.60;;;;;;1865894;77;21105;-46
2021/12/28 10:02:21;;;;;;;8.43;3.72;;;11.00;76.80;;;;;;1865723;77;21038;-45
2021/12/28 10:05:08;;;;;;;5.15;2.98;;;11.00;76.20;;;;;;1865956;77;21039;-47
2021/12/28 10:07:40;;;;;;;7.75;4.72;;;11.10;76.10;;;;;;1865878;77;21551;-45
2021/12/28 10:10:11;;;;;;;7.55;3.60;;;11.10;76.40;;;;;;1865657;77;21055;-48
2021/12/28 10:12:43;;;;;;;8.65;3.98;;;11.10;75.90;;;;;;1865792;77;21180;-45
2021/12/28 10:15:17;;;;;;;7.85;4.50;;;11.20;75.90;;;;;;1865844;77;21035;-47
2021/12/28 10:17:49;;;;;;;4.97;3.77;;;11.20;75.40;;;;;;1866001;77;21055;-46
2021/12/28 10:20:33;;;;;;;5.78;4.42;;;11.20;75.40;;;;;;1865849;77;21111;-46
2021/12/28 10:23:10;;;;;;;5.60;3.25;;;11.20;75.30;;;;;;1865854;77;21168;-45
2021/12/28 10:25:41;;;;;;;5.17;3.72;;;11.30;75.30;;;;;;1865960;77;21067;-45
2021/12/28 10:28:13;;;;;;;6.08;4.33;;;11.30;74.60;;;;;;1865871;77;21138;-44
2021/12/28 10:30:45;;;;;;;6.75;4.75;;;11.30;74.90;;;;;;1865742;77;21016;-44
2021/12/28 10:33:17;;;;;;;8.93;3.70;;;11.30;74.80;;;;;;1865916;77;21055;-46
2021/12/28 10:35:48;;;;;;;5.62;3.80;;;11.40;74.00;;;;;;1865826;77;21144;-48
2021/12/28 10:38:20;;;;;;;5.42;4.20;;;11.40;75.10;;;;;;1865921;77;21023;-49
2021/12/28 10:40:55;;;;;;;5.67;4.15;;;11.40;74.70;;;;;;1865672;77;21063;-44
2021/12/28 10:43:25;;;;;;;;;;;11.40;74.60;;;;;;1868672;77;21105;-47
2021/12/28 10:46:00;;;;;;;9.43;3.87;;;11.40;73.70;;;;;;1865819;77;20098;-43
2021/12/28 10:48:32;;;;;;;5.53;3.42;;;11.40;74.60;;;;;;1865568;77;21106;-44
2021/12/28 10:51:05;;;;;;;6.80;3.67;;;11.40;74.60;;;;;;1863037;77;21059;-44
2021/12/28 10:54:12;;;;;;;7.05;4.50;;;11.40;75.00;;;;;;1906035;75;21517;-45
2021/12/28 10:56:40;;;;;;;4.67;3.10;;;11.50;74.70;;;;;;1868970;77;21027;-44
2021/12/28 10:59:12;;;;;;;5.70;4.33;;;11.50;74.10;;;;;;1904820;74;21437;-48
2021/12/28 11:01:42;;;;;;;7.70;4.37;;;11.50;74.10;;;;;;1869259;77;21042;-44
2021/12/28 11:04:14;;;;;;;5.28;4.35;;;11.50;74.50;;;;;;1905236;75;21027;-47
2021/12/28 11:06:46;;;;;;;4.87;3.50;;;11.50;74.20;;;;;;1869045;76;21456;-48
2021/12/28 11:09:18;;;;;;;6.10;4.05;;;11.50;74.60;;;;;;1905406;75;20991;-48
2021/12/28 11:11:48;;;;;;;13.00;4.83;;;11.50;74.40;;;;;;1905201;75;21015;-45
2021/12/28 11:14:19;;;;;;;6.25;4.58;;;11.50;74.60;;;;;;1905259;74;21043;-44
2021/12/28 11:17:01;;;;;;;5.67;4.60;;;11.50;74.00;;;;;;1905383;75;21462;-45
2021/12/28 11:19:35;;;;;;;6.87;4.60;;;11.50;74.10;;;;;;1868906;77;21030;-47
2021/12/28 11:22:08;;;;;;;6.90;3.92;;;11.50;74.10;;;;;;1904920;75;21019;-46
2021/12/28 11:24:40;;;;;;;6.78;3.90;;;11.60;74.10;;;;;;1905308;75;21093;-45
2021/12/28 11:27:11;;;;;;;6.30;4.37;;;11.60;74.20;;;;;;1905146;75;21048;-48
2021/12/28 11:29:41;;;;;;;5.20;4.00;;;11.50;74.20;;;;;;1905322;75;21085;-48
2021/12/28 11:32:19;;;;;;;6.15;4.22;;;11.60;74.10;;;;;;1868891;77;21445;-48
2021/12/28 11:34:52;;;;;;;8.68;5.05;;;11.60;74.20;;;;;;1905291;75;21031;-47
2021/12/28 11:37:23;;;;;;;5.08;3.77;;;11.60;73.80;;;;;;1868827;76;21531;-48
2021/12/28 11:39:59;;;;;;;8.78;5.08;;;11.60;73.50;;;;;;1905204;74;20988;-48
2021/12/28 11:42:30;;;;;;;3.60;2.95;;;11.60;73.80;;;;;;1868912;77;21469;-45
2021/12/28 11:45:01;;;;;;;4.35;3.35;;;11.70;72.40;;;;;;1905377;75;21016;-48
2021/12/28 11:47:31;;;;;;;5.78;4.10;;;11.70;72.50;;;;;;1868939;77;21092;-45
2021/12/28 11:50:00;;;;;;;6.47;5.10;;;11.70;72.60;;;;;;1905263;75;21019;-47
2021/12/28 11:52:29;;;;;;;8.65;4.55;;;11.70;72.70;;;;;;1868760;75;21473;-48
2021/12/28 11:54:59;;;;;;;5.00;3.80;;;11.70;72.60;;;;;;1905206;75;21015;-48
2021/12/28 11:57:32;;;;;;;6.28;4.72;;;11.80;72.70;;;;;;1868688;77;21584;-47
2021/12/28 12:00:07;;;;;;;6.08;4.10;;;11.80;72.50;;;;;;1905288;75;21461;-48
2021/12/28 12:02:47;;;;;;;6.97;4.50;;;11.80;72.40;;;;;;1864027;77;21089;-46
2021/12/28 12:05:25;;;;;;;5.58;4.35;;;11.80;72.80;;;;;;1905266;75;21485;-45
2021/12/28 12:08:12;;;;;;;5.55;4.55;;;11.80;72.70;;;;;;1868914;77;21088;-46
2021/12/28 12:10:44;;;;;;;6.42;4.45;;;11.80;72.70;;;;;;1905192;74;21091;-45
2021/12/28 12:13:24;;;;;;;7.20;3.62;;;11.70;72.90;;;;;;1868766;77;21026;-45
2021/12/28 12:16:02;;;;;;;6.90;4.20;;;11.70;72.80;;;;;;1905302;75;21078;-45
2021/12/28 12:18:34;;;;;;;6.75;4.80;;;11.70;72.80;;;;;;1904270;74;21517;-48
2021/12/28 12:21:07;;;;;;;6.70;4.35;;;11.70;73.10;;;;;;1904219;74;21039;-46
2021/12/28 12:23:44;;;;;;;7.17;5.20;;;11.70;72.80;;;;;;1868871;76;21030;-46
2021/12/28 12:26:24;;;;;;;8.20;5.22;;;11.70;73.30;;;;;;1905347;75;21031;-45
2021/12/28 12:28:49;;;;;;;8.45;4.30;;;11.60;73.30;;;;;;1866702;76;21047;-48
2021/12/28 12:31:24;;;;;;;5.22;3.90;;;11.60;73.40;;;;;;1905403;75;21008;-48
2021/12/28 12:33:54;;;;;;;6.90;5.03;;;11.60;73.30;;;;;;1901733;74;21097;-44
2021/12/28 12:36:26;;;;;;;13.40;5.60;;;11.60;73.70;;;;;;1868911;75;21007;-44
2021/12/28 12:38:55;;;;;;;9.63;5.67;;;11.60;73.70;;;;;;1905419;74;21450;-44
2021/12/28 12:41:44;;;;;;;8.33;5.28;;;11.50;73.40;;;;;;1905108;75;21023;-48
2021/12/28 12:44:16;;;;;;;10.30;5.65;;;11.50;73.60;;;;;;1868735;77;21096;-47
2021/12/28 12:46:47;;;;;;;6.08;4.70;;;11.50;73.90;;;;;;1905010;74;21102;-45
2021/12/28 12:49:28;;;;;;;7.58;4.28;;;11.50;73.90;;;;;;1868808;77;21018;-44
2021/12/28 12:52:00;;;;;;;7.28;5.35;;;11.50;73.80;;;;;;1905186;75;21031;-45
2021/12/28 12:54:32;;;;;;;6.35;4.70;;;11.50;74.10;;;;;;1905305;75;21096;-45
2021/12/28 12:57:04;;;;;;;7.30;5.00;;;11.40;74.20;;;;;;1868777;77;21058;-45
2021/12/28 12:59:38;;;;;;;9.00;5.80;;;11.40;74.40;;;;;;1905360;75;21109;-46
2021/12/28 13:02:10;;;;;;;10.82;6.35;;;11.40;74.40;;;;;;1863796;77;21094;-46
2021/12/28 13:04:45;;;;;;;12.18;6.08;;;11.30;74.60;;;;;;1905376;74;21465;-45
2021/12/28 13:07:17;;;;;;;17.70;6.58;;;11.30;74.80;;;;;;1905490;75;21011;-46
2021/12/28 13:09:58;;;;;;;9.35;5.12;;;11.30;75.00;;;;;;1904023;74;21024;-47
2021/12/28 13:12:28;;;;;;;10.18;6.40;;;11.20;75.10;;;;;;1905205;75;21081;-45
2021/12/28 13:14:58;;;;;;;10.88;6.12;;;11.20;75.30;;;;;;1905226;75;21048;-46
2021/12/28 13:17:30;;;;;;;9.13;6.42;;;11.10;75.40;;;;;;1905231;74;21059;-48
2021/12/28 13:20:14;;;;;;;7.78;5.40;;;11.10;75.70;;;;;;1905303;74;21509;-47
2021/12/28 13:22:48;;;;;;;10.88;6.67;;;11.10;75.90;;;;;;1905252;75;21019;-45
2021/12/28 13:25:26;;;;;;;12.37;6.85;;;11.00;76.10;;;;;;1904844;74;21098;-47
2021/12/28 13:27:57;;;;;;;10.23;6.60;;;11.00;76.20;;;;;;1905296;75;21019;-45
2021/12/28 13:30:30;;;;;;;10.53;6.92;;;11.00;76.40;;;;;;1905271;74;21470;-45
2021/12/28 13:32:59;;;;;;;10.03;6.00;;;10.90;76.60;;;;;;1905329;74;21456;-45
2021/12/28 13:35:31;;;;;;;15.60;7.30;;;10.90;77.30;;;;;;1905447;75;21015;-45
2021/12/28 13:38:07;;;;;;;12.58;8.15;;;10.80;76.90;;;;;;1905260;75;21085;-45
2021/12/28 13:40:40;;;;;;;11.45;6.95;;;10.80;77.10;;;;;;1904687;74;21090;-45
2021/12/28 13:43:13;;;;;;;6.80;6.10;;;10.80;77.50;;;;;;1905234;75;21527;-45
2021/12/28 13:45:50;;;;;;;11.35;8.43;;;10.70;77.50;;;;;;1867562;76;21023;-47
2021/12/28 13:48:27;;;;;;;19.27;15.20;;;10.70;77.60;;;;;;1905127;75;21020;-45
2021/12/28 13:50:59;;;;;;;15.75;11.18;;;10.70;77.70;;;;;;1905268;75;21454;-44
2021/12/28 13:53:34;;;;;;;11.85;8.28;;;10.70;77.90;;;;;;1914733;74;21114;-46
2021/12/28 13:56:12;;;;;;;12.18;7.85;;;10.60;78.00;;;;;;1924981;74;21089;-47
2021/12/28 13:58:44;;;;;;;13.62;7.37;;;10.60;78.20;;;;;;1924552;74;21121;-49
2021/12/28 14:01:16;;;;;;;14.58;10.38;;;10.60;78.30;;;;;;1924620;74;21042;-49
2021/12/28 14:03:50;;;;;;;23.42;12.80;;;10.60;78.40;;;;;;1923935;74;21096;-48
2021/12/28 14:06:20;;;;;;;20.10;10.32;;;10.60;78.30;;;;;;1914097;74;21022;-47
2021/12/28 14:08:49;;;;;;;23.62;11.83;;;10.60;78.40;;;;;;1924526;74;21023;-46
2021/12/28 14:11:38;;;;;;;24.10;12.58;;;10.60;78.50;;;;;;1924356;74;20995;-45
2021/12/28 14:14:24;;;;;;;21.62;12.05;;;10.60;78.60;;;;;;1924441;74;21030;-48
2021/12/28 14:17:14;;;;;;;35.13;15.95;;;10.60;78.70;;;;;;1924651;74;21019;-46
2021/12/28 14:19:47;;;;;;;35.23;15.88;;;10.50;78.80;;;;;;1924220;74;21038;-47
2021/12/28 14:22:18;;;;;;;18.60;10.10;;;10.50;78.90;;;;;;1923954;74;20999;-46
2021/12/28 14:24:50;;;;;;;9.90;6.28;;;10.50;78.90;;;;;;1924554;74;21070;-45
2021/12/28 14:27:31;;;;;;;15.80;8.38;;;10.50;79.50;;;;;;1924660;74;21100;-45
2021/12/28 14:30:03;;;;;;;20.12;10.35;;;10.50;78.90;;;;;;1924493;74;21022;-46
2021/12/28 14:32:47;;;;;;;19.00;9.75;;;10.50;78.90;;;;;;1923723;74;21523;-49
2021/12/28 14:35:19;;;;;;;18.17;9.53;;;10.50;78.90;;;;;;1924634;74;21084;-48
2021/12/28 14:37:48;;;;;;;18.32;8.73;;;10.50;79.00;;;;;;1924718;74;21078;-45
2021/12/28 14:40:26;;;;;;;12.75;7.10;;;10.50;78.90;;;;;;1924764;74;21030;-47
2021/12/28 14:42:55;;;;;;;13.10;8.18;;;10.40;78.80;;;;;;1924646;74;21108;-45
2021/12/28 14:45:27;;;;;;;12.03;6.92;;;10.50;78.80;;;;;;1924746;74;21031;-46
2021/12/28 14:47:56;;;;;;;15.23;7.58;;;10.50;78.60;;;;;;1924693;74;21084;-46
2021/12/28 14:50:31;;;;;;;10.15;5.05;;;10.50;78.70;;;;;;1924587;74;21093;-46
2021/12/28 14:53:04;;;;;;;13.65;5.78;;;10.50;78.60;;;;;;1923533;74;21014;-45